North Springfield, Pennsylvania
Current Conditions -  °F | °C
As of 7:51 PM on Monday 22 Dec 2014 (Local Time) from KERI Reporting Station
Clear Clear  
Wind Chill: 28°   Ceiling: Unl
Heat Index: 37°   Visibility: 10mi
Dew Point: 26°   Wind: 15mph
Humidity: 65%   Direction: 150°SSE
Pressure: 29.97"   Gusts: 23mph
Location:  41.99°N, 80.42°W
Report Text: KERI 230051Z 15013G20KT 10SM CLR 03/M03 A2997 RMK AO2 SLP158 T00281033
Loading
Personal Weather Stations






























Interactive Weather Map New forecast layout! Learn more

10-Day Weather Forecast

Advertisements
Track Severe Weather on mobile